createdAt,value
2023-03-02T00:00:59.837Z,-5.61
2023-03-02T00:03:27.009Z,-5.62
2023-03-02T00:05:54.538Z,-5.59
2023-03-02T00:08:21.454Z,-5.55
2023-03-02T00:10:48.515Z,-5.51
2023-03-02T00:13:15.555Z,-5.46
2023-03-02T00:15:42.433Z,-5.41
2023-03-02T00:18:09.164Z,-5.40
2023-03-02T00:20:36.113Z,-5.42
2023-03-02T00:23:03.035Z,-5.45
2023-03-02T00:25:29.820Z,-5.49
2023-03-02T00:27:56.582Z,-5.55
2023-03-02T00:30:23.383Z,-5.60
2023-03-02T00:32:50.106Z,-5.64
2023-03-02T00:35:17.106Z,-5.68
2023-03-02T00:37:44.710Z,-5.73
2023-03-02T00:40:13.567Z,-5.75
2023-03-02T00:42:40.455Z,-5.77
2023-03-02T00:45:08.237Z,-5.78
2023-03-02T00:47:36.475Z,-5.76
2023-03-02T00:50:05.120Z,-5.74
2023-03-02T00:52:33.573Z,-5.74
2023-03-02T00:55:00.482Z,-5.73
2023-03-02T00:57:27.541Z,-5.74
2023-03-02T00:59:54.595Z,-5.77
2023-03-02T01:02:25.260Z,-5.80
2023-03-02T01:04:53.596Z,-5.83
2023-03-02T01:07:21.459Z,-5.87
2023-03-02T01:09:48.725Z,-5.90
2023-03-02T01:12:16.272Z,-5.92
2023-03-02T01:14:47.143Z,-5.90
2023-03-02T01:17:15.501Z,-5.86
2023-03-02T01:19:42.393Z,-5.83
2023-03-02T01:22:10.090Z,-5.82
2023-03-02T01:24:36.977Z,-5.79
2023-03-02T01:27:04.193Z,-5.82
2023-03-02T01:29:31.037Z,-5.84
2023-03-02T01:31:57.851Z,-5.86
2023-03-02T01:34:24.739Z,-5.88
2023-03-02T01:36:51.482Z,-5.90
2023-03-02T01:39:18.334Z,-5.93
2023-03-02T01:41:46.452Z,-5.97
2023-03-02T01:44:37.626Z,-5.99
2023-03-02T01:47:13.934Z,-5.98
2023-03-02T01:49:50.979Z,-5.96
2023-03-02T01:52:18.994Z,-5.93
2023-03-02T01:54:49.989Z,-5.91
2023-03-02T01:57:23.359Z,-5.89
2023-03-02T01:59:54.989Z,-5.89
2023-03-02T02:02:22.108Z,-5.90
2023-03-02T02:04:50.168Z,-5.95
2023-03-02T02:07:18.281Z,-6.00
2023-03-02T02:09:49.888Z,-6.04
2023-03-02T02:12:20.193Z,-6.09
2023-03-02T02:14:48.368Z,-6.17
2023-03-02T02:17:16.872Z,-6.21
2023-03-02T02:19:59.091Z,-6.24
2023-03-02T02:22:41.834Z,-6.24
2023-03-02T02:25:26.640Z,-6.21
2023-03-02T02:27:54.541Z,-6.16
2023-03-02T02:30:22.950Z,-6.09
2023-03-02T02:32:53.105Z,-6.00
2023-03-02T02:35:24.577Z,-5.92
2023-03-02T02:37:54.886Z,-5.83
2023-03-02T02:40:42.968Z,-5.76
2023-03-02T02:43:14.425Z,-5.67
2023-03-02T02:45:42.224Z,-5.59
2023-03-02T02:48:16.146Z,-5.51
2023-03-02T02:50:44.460Z,-5.44
2023-03-02T02:53:18.033Z,-5.37
2023-03-02T02:55:48.131Z,-5.34
2023-03-02T02:58:27.726Z,-5.36
2023-03-02T03:00:55.240Z,-5.40
2023-03-02T03:03:31.004Z,-5.45
2023-03-02T03:06:04.364Z,-5.49
2023-03-02T03:08:46.896Z,-5.54
2023-03-02T03:11:24.414Z,-5.64
2023-03-02T03:13:57.435Z,-5.73
2023-03-02T03:16:28.719Z,-5.81
2023-03-02T03:18:59.581Z,-5.90
2023-03-02T03:21:26.364Z,-5.98
2023-03-02T03:23:53.761Z,-6.04
2023-03-02T03:26:21.028Z,-6.10
2023-03-02T03:28:48.423Z,-6.14
2023-03-02T03:31:15.291Z,-6.17
2023-03-02T03:33:42.612Z,-6.17
2023-03-02T03:36:09.630Z,-6.14
2023-03-02T03:38:36.504Z,-6.11
2023-03-02T03:41:03.562Z,-6.06
2023-03-02T03:43:30.524Z,-6.01
2023-03-02T03:45:57.443Z,-5.97
2023-03-02T03:48:24.619Z,-5.94
2023-03-02T03:50:52.406Z,-5.92
2023-03-02T03:53:19.332Z,-5.88
2023-03-02T03:55:46.134Z,-5.81
2023-03-02T03:58:13.682Z,-5.74
2023-03-02T04:00:40.909Z,-5.66
2023-03-02T04:03:08.436Z,-5.60
2023-03-02T04:05:35.292Z,-5.56
2023-03-02T04:08:03.506Z,-5.57
2023-03-02T04:10:31.342Z,-5.61
2023-03-02T04:12:58.879Z,-5.69
2023-03-02T04:15:26.299Z,-5.77
2023-03-02T04:17:53.588Z,-5.86
2023-03-02T04:20:23.356Z,-5.96
2023-03-02T04:22:53.840Z,-6.04
2023-03-02T04:25:23.639Z,-6.11
2023-03-02T04:27:53.980Z,-6.18
2023-03-02T04:30:26.559Z,-6.25
2023-03-02T04:32:54.357Z,-6.31
2023-03-02T04:35:21.963Z,-6.36
2023-03-02T04:37:48.881Z,-6.40
2023-03-02T04:40:16.207Z,-6.39
2023-03-02T04:42:44.707Z,-6.38
2023-03-02T04:45:12.954Z,-6.39
2023-03-02T04:47:40.156Z,-6.38
2023-03-02T04:50:07.748Z,-6.35
2023-03-02T04:52:35.042Z,-6.32
2023-03-02T04:55:02.050Z,-6.26
2023-03-02T04:57:28.790Z,-6.21
2023-03-02T04:59:55.727Z,-6.12
2023-03-02T05:02:22.666Z,-6.04
2023-03-02T05:04:49.670Z,-6.17
2023-03-02T05:07:16.512Z,-6.40
2023-03-02T05:09:43.351Z,-6.58
2023-03-02T05:12:10.068Z,-6.81
2023-03-02T05:14:36.927Z,-6.99
2023-03-02T05:17:03.914Z,-7.13
2023-03-02T05:19:30.733Z,-7.17
2023-03-02T05:21:57.711Z,-7.13
2023-03-02T05:24:24.533Z,-7.10
2023-03-02T05:26:51.459Z,-7.09
2023-03-02T05:29:18.409Z,-7.08
2023-03-02T05:31:46.432Z,-7.06
2023-03-02T05:34:17.004Z,-6.98
2023-03-02T05:36:45.483Z,-6.84
2023-03-02T05:39:12.610Z,-6.73
2023-03-02T05:41:40.113Z,-6.72
2023-03-02T05:44:09.656Z,-6.68
2023-03-02T05:46:37.163Z,-6.65
2023-03-02T05:49:04.462Z,-6.57
2023-03-02T05:51:31.380Z,-6.42
2023-03-02T05:53:58.163Z,-6.28
2023-03-02T05:56:24.938Z,-6.27
2023-03-02T05:58:51.674Z,-6.30
2023-03-02T06:01:18.467Z,-6.32
2023-03-02T06:03:45.236Z,-6.31
2023-03-02T06:06:14.397Z,-6.13
2023-03-02T06:08:42.756Z,-5.95
2023-03-02T06:11:09.901Z,-5.95
2023-03-02T06:13:36.863Z,-5.96
2023-03-02T06:16:03.994Z,-5.94
2023-03-02T06:18:30.899Z,-5.86
2023-03-02T06:20:57.952Z,-5.64
2023-03-02T06:23:24.782Z,-5.31
2023-03-02T06:25:51.722Z,-5.00
2023-03-02T06:28:20.103Z,-4.76
2023-03-02T06:30:48.987Z,-4.51
2023-03-02T06:33:18.117Z,-4.30
2023-03-02T06:35:46.057Z,-3.96
2023-03-02T06:38:13.310Z,-3.50
2023-03-02T06:40:40.098Z,-3.00
2023-03-02T06:43:06.835Z,-2.58
2023-03-02T06:45:34.757Z,-2.12
2023-03-02T06:48:02.201Z,-1.77
2023-03-02T06:50:29.121Z,-1.45
2023-03-02T06:52:56.718Z,-0.91
2023-03-02T06:55:24.135Z,-0.31
2023-03-02T06:57:51.220Z,0.26
2023-03-02T07:00:26.058Z,0.68
2023-03-02T07:02:53.579Z,0.89
2023-03-02T07:05:21.122Z,1.02
2023-03-02T07:07:47.981Z,1.22
2023-03-02T07:10:14.806Z,1.60
2023-03-02T07:12:42.726Z,2.19
2023-03-02T07:15:12.223Z,2.84
2023-03-02T07:17:40.938Z,3.44
2023-03-02T07:20:08.980Z,3.77
2023-03-02T07:22:36.543Z,4.07
2023-03-02T07:25:03.750Z,4.33
2023-03-02T07:27:30.613Z,4.88
2023-03-02T07:29:57.325Z,5.63
2023-03-02T07:32:24.128Z,6.45
2023-03-02T07:34:50.917Z,7.20
2023-03-02T07:37:17.815Z,7.69
2023-03-02T07:39:44.810Z,8.07
2023-03-02T07:42:12.774Z,8.65
2023-03-02T07:44:41.123Z,9.34
2023-03-02T07:47:08.006Z,10.04
2023-03-02T07:49:35.602Z,10.73
2023-03-02T07:52:03.568Z,11.36
2023-03-02T07:54:30.640Z,11.81
2023-03-02T07:56:59.225Z,12.24
2023-03-02T07:59:28.371Z,12.63
2023-03-02T08:01:56.412Z,13.11
2023-03-02T08:04:23.995Z,13.64
2023-03-02T08:06:50.963Z,14.23
2023-03-02T08:09:18.218Z,14.79
2023-03-02T08:11:45.172Z,15.27
2023-03-02T08:14:11.966Z,15.67
2023-03-02T08:16:39.585Z,16.04
2023-03-02T08:19:07.332Z,16.35
2023-03-02T08:21:34.437Z,16.76
2023-03-02T08:24:01.471Z,17.21
2023-03-02T08:26:28.528Z,17.59
2023-03-02T08:28:55.274Z,17.85
2023-03-02T08:31:22.133Z,18.14
2023-03-02T08:33:48.967Z,18.40
2023-03-02T08:36:18.672Z,18.39
2023-03-02T08:38:46.677Z,18.52
2023-03-02T08:41:18.086Z,18.86
2023-03-02T08:43:45.146Z,19.21
2023-03-02T08:46:14.036Z,19.47
2023-03-02T08:48:41.299Z,19.72
2023-03-02T08:51:12.669Z,20.00
2023-03-02T08:53:43.224Z,20.27
2023-03-02T08:56:26.823Z,20.36
2023-03-02T08:58:54.289Z,20.52
2023-03-02T09:01:24.879Z,20.66
2023-03-02T09:03:52.079Z,20.74
2023-03-02T09:06:19.257Z,20.85
2023-03-02T09:08:46.458Z,20.97
2023-03-02T09:11:13.453Z,21.19
2023-03-02T09:13:40.553Z,21.13
2023-03-02T09:16:08.779Z,21.09
2023-03-02T09:18:36.627Z,21.15
2023-03-02T09:21:04.472Z,21.12
2023-03-02T09:23:32.910Z,20.85
2023-03-02T09:25:59.937Z,20.78
2023-03-02T09:28:26.737Z,20.66
2023-03-02T09:30:57.674Z,20.51
2023-03-02T09:33:25.273Z,20.36
2023-03-02T09:35:52.100Z,20.19
2023-03-02T09:38:19.228Z,19.76
2023-03-02T09:41:06.820Z,19.25
2023-03-02T09:43:56.066Z,18.87
2023-03-02T09:46:30.210Z,18.68
2023-03-02T09:49:22.452Z,18.51
2023-03-02T09:52:08.063Z,18.48
2023-03-02T09:54:37.973Z,18.38
2023-03-02T09:57:22.917Z,18.41
2023-03-02T10:00:01.684Z,18.32
2023-03-02T10:02:48.431Z,18.07
2023-03-02T10:05:24.314Z,17.52
2023-03-02T10:07:51.110Z,17.12
2023-03-02T10:10:25.257Z,16.93
2023-03-02T10:13:01.489Z,16.94
2023-03-02T10:15:39.854Z,17.02
2023-03-02T10:18:34.131Z,17.12
2023-03-02T10:21:04.200Z,17.07
2023-03-02T10:23:37.474Z,16.84
2023-03-02T10:26:15.577Z,16.43
2023-03-02T10:28:49.331Z,16.01
2023-03-02T10:31:23.218Z,15.90
2023-03-02T10:33:50.163Z,15.77
2023-03-02T10:36:40.493Z,15.62
2023-03-02T10:39:14.231Z,15.33
2023-03-02T10:41:45.381Z,14.83
2023-03-02T10:44:20.379Z,14.56
2023-03-02T10:46:47.961Z,14.41
2023-03-02T10:49:35.075Z,14.23
2023-03-02T10:52:05.813Z,14.14
2023-03-02T10:54:34.615Z,14.22
2023-03-02T10:57:04.733Z,14.24
2023-03-02T10:59:43.649Z,14.13
2023-03-02T11:02:15.712Z,14.03
2023-03-02T11:04:43.148Z,14.06
2023-03-02T11:07:17.508Z,13.98
2023-03-02T11:09:56.862Z,13.80
2023-03-02T11:12:23.726Z,13.71
2023-03-02T11:15:01.589Z,13.48
2023-03-02T11:17:31.851Z,13.45
2023-03-02T11:19:58.647Z,13.50
2023-03-02T11:22:37.491Z,13.65
2023-03-02T11:25:12.887Z,13.78
2023-03-02T11:27:43.106Z,13.83
2023-03-02T11:30:16.183Z,13.93
2023-03-02T11:32:53.499Z,14.05
2023-03-02T11:35:43.572Z,14.15
2023-03-02T11:38:21.433Z,14.11
2023-03-02T11:40:54.043Z,14.21
2023-03-02T11:43:20.848Z,14.37
2023-03-02T11:45:56.934Z,14.51
2023-03-02T11:48:32.688Z,14.72
2023-03-02T11:51:03.542Z,14.96
2023-03-02T11:53:43.505Z,15.23
2023-03-02T11:56:10.325Z,15.55
2023-03-02T11:58:39.157Z,15.92
2023-03-02T12:01:11.031Z,16.28
2023-03-02T12:03:40.643Z,16.52
2023-03-02T12:06:26.910Z,16.69
2023-03-02T12:09:07.454Z,16.82
2023-03-02T12:11:39.031Z,16.99
2023-03-02T12:14:27.293Z,17.13
2023-03-02T12:17:06.375Z,17.21
2023-03-02T12:19:42.640Z,17.35
2023-03-02T12:22:12.488Z,17.55
2023-03-02T12:24:43.741Z,17.76
2023-03-02T12:27:10.451Z,17.81
2023-03-02T12:29:40.590Z,17.84
2023-03-02T12:32:19.344Z,18.00
2023-03-02T12:34:55.059Z,18.31
2023-03-02T12:37:26.268Z,18.80
2023-03-02T12:40:24.107Z,19.29
2023-03-02T12:42:51.854Z,19.74
2023-03-02T12:45:25.783Z,20.05
2023-03-02T12:48:02.961Z,20.29
2023-03-02T12:50:36.713Z,20.60
2023-03-02T12:53:06.336Z,21.08
2023-03-02T12:55:34.422Z,21.49
2023-03-02T12:58:02.425Z,21.88
2023-03-02T13:00:33.602Z,22.33
2023-03-02T13:03:03.159Z,22.79
2023-03-02T13:05:32.517Z,23.16
2023-03-02T13:08:04.490Z,23.52
2023-03-02T13:10:37.083Z,23.75
2023-03-02T13:13:14.202Z,23.61
2023-03-02T13:15:49.378Z,23.60
2023-03-02T13:18:16.621Z,23.71
2023-03-02T13:20:43.879Z,23.93
2023-03-02T13:23:14.393Z,24.19
2023-03-02T13:25:58.453Z,24.46
2023-03-02T13:28:29.011Z,24.75
2023-03-02T13:30:58.891Z,24.91
2023-03-02T13:33:27.288Z,24.98
2023-03-02T13:35:54.324Z,25.06
2023-03-02T13:38:24.316Z,25.07
2023-03-02T13:40:53.167Z,25.09
2023-03-02T13:43:23.486Z,25.13
2023-03-02T13:45:54.341Z,25.11
2023-03-02T13:48:21.784Z,24.89
2023-03-02T13:51:14.379Z,24.63
2023-03-02T13:53:45.724Z,24.50
2023-03-02T13:56:16.858Z,24.46
2023-03-02T13:58:44.201Z,24.44
2023-03-02T14:01:13.121Z,24.49
2023-03-02T14:03:39.889Z,24.50
2023-03-02T14:06:07.144Z,24.50
2023-03-02T14:08:33.932Z,24.54
2023-03-02T14:13:52.351Z,24.69
2023-03-02T14:16:19.614Z,24.74
2023-03-02T14:18:49.016Z,24.71
2023-03-02T14:21:18.701Z,24.60
2023-03-02T14:23:46.638Z,24.51
2023-03-02T14:26:32.233Z,24.41
2023-03-02T14:29:05.754Z,24.36
2023-03-02T14:31:34.458Z,24.19
2023-03-02T14:34:01.784Z,23.98
2023-03-02T14:36:32.182Z,23.81
2023-03-02T14:39:02.958Z,23.68
2023-03-02T14:41:30.083Z,23.54
2023-03-02T14:43:58.831Z,23.35
2023-03-02T14:46:25.763Z,23.14
2023-03-02T14:48:52.625Z,22.88
2023-03-02T14:51:28.302Z,22.67
2023-03-02T14:53:58.055Z,22.51
2023-03-02T14:56:25.755Z,22.33
2023-03-02T14:58:53.502Z,22.15
2023-03-02T15:01:21.250Z,21.92
2023-03-02T15:03:48.090Z,21.63
2023-03-02T15:06:23.935Z,21.23
2023-03-02T15:08:51.259Z,20.91
2023-03-02T15:11:18.048Z,20.57
2023-03-02T15:13:45.800Z,20.34
2023-03-02T15:16:12.937Z,20.13
2023-03-02T15:18:39.912Z,19.64
2023-03-02T15:21:07.583Z,19.04
2023-03-02T15:23:34.557Z,18.60
2023-03-02T15:26:02.499Z,18.00
2023-03-02T15:28:45.887Z,17.37
2023-03-02T15:31:16.350Z,16.60
2023-03-02T15:33:45.528Z,15.88
2023-03-02T15:36:14.177Z,15.18
2023-03-02T15:38:41.039Z,14.58
2023-03-02T15:41:11.685Z,14.03
2023-03-02T15:43:39.163Z,13.53
2023-03-02T15:46:22.540Z,13.05
2023-03-02T15:48:52.075Z,12.56
2023-03-02T15:51:19.849Z,12.15
2023-03-02T15:53:47.518Z,11.77
2023-03-02T15:56:16.111Z,11.39
2023-03-02T15:58:48.196Z,11.04
2023-03-02T16:01:30.917Z,10.68
2023-03-02T16:04:00.653Z,10.31
2023-03-02T16:06:28.569Z,9.97
2023-03-02T16:08:55.473Z,9.66
2023-03-02T16:11:23.701Z,9.36
2023-03-02T16:13:52.343Z,9.09
2023-03-02T16:16:21.090Z,8.82
2023-03-02T16:18:52.437Z,8.55
2023-03-02T16:21:35.036Z,8.27
2023-03-02T16:24:03.987Z,7.99
2023-03-02T16:26:34.037Z,7.75
2023-03-02T16:29:01.883Z,7.54
2023-03-02T16:31:32.349Z,7.34
2023-03-02T16:34:03.773Z,7.13
2023-03-02T16:36:30.639Z,6.92
2023-03-02T16:38:57.403Z,6.72
2023-03-02T16:41:24.752Z,6.50
2023-03-02T16:43:54.339Z,6.28
2023-03-02T16:46:22.353Z,6.09
2023-03-02T16:48:50.131Z,5.91
2023-03-02T16:51:18.936Z,5.73
2023-03-02T16:53:46.556Z,5.52
2023-03-02T16:56:15.105Z,5.33
2023-03-02T16:58:42.897Z,5.14
2023-03-02T17:01:14.519Z,4.95
2023-03-02T17:03:42.574Z,4.75
2023-03-02T17:06:11.134Z,4.48
2023-03-02T17:08:38.526Z,4.25
2023-03-02T17:11:05.957Z,4.09
2023-03-02T17:13:33.208Z,3.89
2023-03-02T17:16:00.157Z,3.65
2023-03-02T17:18:28.332Z,3.47
2023-03-02T17:20:57.807Z,3.31
2023-03-02T17:23:25.102Z,3.15
2023-03-02T17:25:51.975Z,2.99
2023-03-02T17:28:19.014Z,2.82
2023-03-02T17:30:46.177Z,2.65
2023-03-02T17:33:13.020Z,2.50
2023-03-02T17:35:39.906Z,2.35
2023-03-02T17:38:06.744Z,2.20
2023-03-02T17:40:33.969Z,2.04
2023-03-02T17:43:00.771Z,1.90
2023-03-02T17:45:29.074Z,1.76
2023-03-02T17:47:58.275Z,1.62
2023-03-02T17:50:26.944Z,1.48
2023-03-02T17:52:54.370Z,1.34
2023-03-02T17:55:21.179Z,1.21
2023-03-02T17:57:47.937Z,1.08
2023-03-02T18:00:20.319Z,0.94
2023-03-02T18:02:47.071Z,0.82
2023-03-02T18:05:13.920Z,0.69
2023-03-02T18:07:40.935Z,0.57
2023-03-02T18:10:07.822Z,0.37
2023-03-02T18:12:35.463Z,0.17
2023-03-02T18:15:03.463Z,-0.01
2023-03-02T18:17:30.284Z,-0.14
2023-03-02T18:19:57.020Z,-0.22
2023-03-02T18:22:23.936Z,-0.27
2023-03-02T18:25:06.258Z,-0.36
2023-03-02T18:27:33.114Z,-0.44
2023-03-02T18:29:59.861Z,-0.51
2023-03-02T18:32:26.799Z,-0.61
2023-03-02T18:34:53.826Z,-0.70
2023-03-02T18:37:21.095Z,-0.79
2023-03-02T18:39:47.988Z,-0.88
2023-03-02T18:42:15.028Z,-0.96
2023-03-02T18:44:42.071Z,-1.01
2023-03-02T18:47:10.621Z,-1.06
2023-03-02T18:49:38.439Z,-1.13
2023-03-02T18:52:06.905Z,-1.20
2023-03-02T18:54:33.652Z,-1.28
2023-03-02T18:57:01.765Z,-1.35
2023-03-02T18:59:29.810Z,-1.42
2023-03-02T19:01:57.361Z,-1.48
2023-03-02T19:04:26.511Z,-1.50
2023-03-02T19:06:56.171Z,-1.49
2023-03-02T19:09:23.590Z,-1.48
2023-03-02T19:11:50.344Z,-1.45
2023-03-02T19:14:17.149Z,-1.39
2023-03-02T19:16:44.128Z,-1.34
2023-03-02T19:19:10.946Z,-1.33
2023-03-02T19:21:37.894Z,-1.29
2023-03-02T19:24:05.118Z,-1.27
2023-03-02T19:26:31.954Z,-1.24
2023-03-02T19:28:58.889Z,-1.21
2023-03-02T19:31:27.708Z,-1.17
2023-03-02T19:33:54.607Z,-1.13
2023-03-02T19:36:21.452Z,-1.10
2023-03-02T19:38:48.382Z,-1.09
2023-03-02T19:41:19.952Z,-1.10
2023-03-02T19:43:47.123Z,-1.14
2023-03-02T19:46:16.229Z,-1.18
2023-03-02T19:48:43.751Z,-1.21
2023-03-02T19:51:12.168Z,-1.26
2023-03-02T19:53:40.409Z,-1.33
2023-03-02T19:56:12.705Z,-1.39
2023-03-02T19:58:50.808Z,-1.43
2023-03-02T20:01:21.984Z,-1.44
2023-03-02T20:03:53.307Z,-1.43
2023-03-02T20:06:25.120Z,-1.42
2023-03-02T20:08:52.541Z,-1.41
2023-03-02T20:11:19.683Z,-1.39
2023-03-02T20:13:46.724Z,-1.40
2023-03-02T20:16:14.738Z,-1.41
2023-03-02T20:18:42.497Z,-1.45
2023-03-02T20:21:09.407Z,-1.48
2023-03-02T20:23:36.361Z,-1.52
2023-03-02T20:26:07.468Z,-1.58
2023-03-02T20:28:34.915Z,-1.63
2023-03-02T20:31:08.953Z,-1.67
2023-03-02T20:33:41.069Z,-1.69
2023-03-02T20:36:08.591Z,-1.66
2023-03-02T20:38:41.061Z,-1.67
2023-03-02T20:41:09.338Z,-1.66
2023-03-02T20:43:39.353Z,-1.69
2023-03-02T20:46:07.820Z,-1.73
2023-03-02T20:48:37.347Z,-1.77
2023-03-02T20:51:04.576Z,-1.82
2023-03-02T20:53:31.622Z,-1.86
2023-03-02T20:55:58.947Z,-1.91
2023-03-02T20:58:25.845Z,-1.97
2023-03-02T21:00:53.851Z,-2.04
2023-03-02T21:03:20.731Z,-2.09
2023-03-02T21:05:48.055Z,-2.12
2023-03-02T21:08:15.293Z,-2.13
2023-03-02T21:10:43.718Z,-2.10
2023-03-02T21:13:11.906Z,-2.08
2023-03-02T21:15:39.424Z,-2.07
2023-03-02T21:18:06.215Z,-2.08
2023-03-02T21:20:35.891Z,-2.09
2023-03-02T21:23:03.295Z,-2.11
2023-03-02T21:25:30.083Z,-2.15
2023-03-02T21:27:57.552Z,-2.19
2023-03-02T21:30:28.468Z,-2.24
2023-03-02T21:32:55.678Z,-2.25
2023-03-02T21:35:23.744Z,-2.25
2023-03-02T21:37:53.699Z,-2.24
2023-03-02T21:40:25.577Z,-2.25
2023-03-02T21:42:53.086Z,-2.25
2023-03-02T21:45:20.612Z,-2.28
2023-03-02T21:47:47.398Z,-2.29
2023-03-02T21:50:20.507Z,-2.31
2023-03-02T21:52:47.243Z,-2.34
2023-03-02T21:55:15.754Z,-2.33
2023-03-02T21:57:43.169Z,-2.33
2023-03-02T22:00:19.977Z,-2.31
2023-03-02T22:02:46.736Z,-2.25
2023-03-02T22:05:13.540Z,-2.19
2023-03-02T22:07:40.415Z,-2.16
2023-03-02T22:10:08.795Z,-2.16
2023-03-02T22:12:35.562Z,-2.18
2023-03-02T22:15:06.731Z,-2.22
2023-03-02T22:17:33.756Z,-2.29
2023-03-02T22:20:00.568Z,-2.35
2023-03-02T22:22:30.503Z,-2.40
2023-03-02T22:24:57.399Z,-2.43
2023-03-02T22:27:28.086Z,-2.45
2023-03-02T22:29:59.362Z,-2.45
2023-03-02T22:32:30.248Z,-2.44
2023-03-02T22:35:01.950Z,-2.44
2023-03-02T22:37:33.465Z,-2.46
2023-03-02T22:40:13.002Z,-2.49
2023-03-02T22:42:40.081Z,-2.53
2023-03-02T22:45:14.956Z,-2.59
2023-03-02T22:47:42.927Z,-2.69
2023-03-02T22:50:26.429Z,-2.75
2023-03-02T22:52:55.454Z,-2.82
2023-03-02T22:55:37.916Z,-2.89
2023-03-02T22:58:29.620Z,-2.93
2023-03-02T23:00:59.421Z,-2.95
2023-03-02T23:03:43.738Z,-2.95
2023-03-02T23:06:27.405Z,-2.94
2023-03-02T23:08:57.557Z,-2.94
2023-03-02T23:11:25.872Z,-2.97
2023-03-02T23:16:39.036Z,-3.03
2023-03-02T23:19:06.886Z,-3.09
2023-03-02T23:21:39.227Z,-3.15
2023-03-02T23:24:08.406Z,-3.20
2023-03-02T23:26:35.887Z,-3.22
2023-03-02T23:29:03.885Z,-3.25
2023-03-02T23:31:30.635Z,-3.28
2023-03-02T23:33:58.867Z,-3.27
2023-03-02T23:36:27.756Z,-3.28
2023-03-02T23:38:54.527Z,-3.30
2023-03-02T23:41:21.998Z,-3.31
2023-03-02T23:43:49.035Z,-3.35
2023-03-02T23:46:16.318Z,-3.40
2023-03-02T23:48:43.316Z,-3.49
2023-03-02T23:51:10.569Z,-3.56
2023-03-02T23:53:37.340Z,-3.58
2023-03-02T23:56:04.235Z,-3.57
2023-03-02T23:58:31.170Z,-3.55
